sensor_id;sensor_type;location;lat;lon;timestamp;temperature;humidity
62573;DHT22;48626;51.678;5.806;2023-03-14T00:01:14;12.60;99.90
62573;DHT22;48626;51.678;5.806;2023-03-14T00:03:40;12.60;99.90
62573;DHT22;48626;51.678;5.806;2023-03-14T00:06:06;12.50;99.90
62573;DHT22;48626;51.678;5.806;2023-03-14T00:08:32;12.50;99.90
62573;DHT22;48626;51.678;5.806;2023-03-14T00:11:03;12.40;99.90
62573;DHT22;48626;51.678;5.806;2023-03-14T00:13:28;12.40;99.90
62573;DHT22;48626;51.678;5.806;2023-03-14T00:15:54;12.30;99.90
62573;DHT22;48626;51.678;5.806;2023-03-14T00:18:20;12.30;99.90
62573;DHT22;48626;51.678;5.806;2023-03-14T00:20:45;12.30;99.90
62573;DHT22;48626;51.678;5.806;2023-03-14T00:23:11;12.30;99.90
62573;DHT22;48626;51.678;5.806;2023-03-14T00:25:37;12.30;99.90
62573;DHT22;48626;51.678;5.806;2023-03-14T00:28:03;12.20;99.90
62573;DHT22;48626;51.678;5.806;2023-03-14T00:30:28;12.20;99.90
62573;DHT22;48626;51.678;5.806;2023-03-14T00:32:54;12.20;99.90
62573;DHT22;48626;51.678;5.806;2023-03-14T00:35:19;12.10;99.90
62573;DHT22;48626;51.678;5.806;2023-03-14T00:37:45;12.10;99.90
62573;DHT22;48626;51.678;5.806;2023-03-14T00:40:11;12.10;99.90
62573;DHT22;48626;51.678;5.806;2023-03-14T00:42:36;12.10;99.90
62573;DHT22;48626;51.678;5.806;2023-03-14T00:45:02;12.10;99.90
62573;DHT22;48626;51.678;5.806;2023-03-14T00:47:29;12.10;99.90
62573;DHT22;48626;51.678;5.806;2023-03-14T00:49:55;12.00;99.90
62573;DHT22;48626;51.678;5.806;2023-03-14T00:52:20;11.90;99.90
62573;DHT22;48626;51.678;5.806;2023-03-14T00:54:46;11.90;99.90
62573;DHT22;48626;51.678;5.806;2023-03-14T00:57:11;11.80;99.90
62573;DHT22;48626;51.678;5.806;2023-03-14T00:59:37;11.90;99.90
62573;DHT22;48626;51.678;5.806;2023-03-14T01:02:03;11.80;99.90
62573;DHT22;48626;51.678;5.806;2023-03-14T01:04:28;11.80;99.90
62573;DHT22;48626;51.678;5.806;2023-03-14T01:06:55;11.80;99.90
62573;DHT22;48626;51.678;5.806;2023-03-14T01:09:21;11.90;99.90
62573;DHT22;48626;51.678;5.806;2023-03-14T01:11:46;11.90;99.90
62573;DHT22;48626;51.678;5.806;2023-03-14T01:14:12;11.90;99.90
62573;DHT22;48626;51.678;5.806;2023-03-14T01:16:38;12.00;99.90
62573;DHT22;48626;51.678;5.806;2023-03-14T01:19:04;11.90;99.90
62573;DHT22;48626;51.678;5.806;2023-03-14T01:21:32;12.00;99.90
62573;DHT22;48626;51.678;5.806;2023-03-14T01:23:59;11.90;99.90
62573;DHT22;48626;51.678;5.806;2023-03-14T01:26:28;11.90;99.90
62573;DHT22;48626;51.678;5.806;2023-03-14T01:28:55;11.90;99.90
62573;DHT22;48626;51.678;5.806;2023-03-14T01:31:21;11.90;99.90
62573;DHT22;48626;51.678;5.806;2023-03-14T01:33:47;11.90;99.90
62573;DHT22;48626;51.678;5.806;2023-03-14T01:36:13;11.90;99.90
62573;DHT22;48626;51.678;5.806;2023-03-14T01:38:39;12.00;99.90
62573;DHT22;48626;51.678;5.806;2023-03-14T01:41:11;12.00;99.90
62573;DHT22;48626;51.678;5.806;2023-03-14T01:43:37;12.00;99.90
62573;DHT22;48626;51.678;5.806;2023-03-14T01:48:42;12.00;99.90
62573;DHT22;48626;51.678;5.806;2023-03-14T01:51:13;12.00;99.90
62573;DHT22;48626;51.678;5.806;2023-03-14T01:53:40;11.90;99.90
62573;DHT22;48626;51.678;5.806;2023-03-14T01:56:10;11.90;99.90
62573;DHT22;48626;51.678;5.806;2023-03-14T01:58:37;11.90;99.90
62573;DHT22;48626;51.678;5.806;2023-03-14T02:01:05;12.00;99.90
62573;DHT22;48626;51.678;5.806;2023-03-14T02:03:34;11.90;99.90
62573;DHT22;48626;51.678;5.806;2023-03-14T02:06:06;11.90;99.90
62573;DHT22;48626;51.678;5.806;2023-03-14T02:08:33;11.90;99.90
62573;DHT22;48626;51.678;5.806;2023-03-14T02:11:00;11.90;99.90
62573;DHT22;48626;51.678;5.806;2023-03-14T02:13:26;11.90;99.90
62573;DHT22;48626;51.678;5.806;2023-03-14T02:15:52;11.90;99.90
62573;DHT22;48626;51.678;5.806;2023-03-14T02:18:18;11.80;99.90
62573;DHT22;48626;51.678;5.806;2023-03-14T02:26:10;11.80;99.90
62573;DHT22;48626;51.678;5.806;2023-03-14T02:28:37;11.80;99.90
62573;DHT22;48626;51.678;5.806;2023-03-14T02:31:03;11.80;99.90
62573;DHT22;48626;51.678;5.806;2023-03-14T02:33:29;11.80;99.90
62573;DHT22;48626;51.678;5.806;2023-03-14T02:36:03;11.80;99.90
62573;DHT22;48626;51.678;5.806;2023-03-14T02:38:45;11.80;99.90
62573;DHT22;48626;51.678;5.806;2023-03-14T02:41:12;11.90;99.90
62573;DHT22;48626;51.678;5.806;2023-03-14T02:43:38;11.90;99.90
62573;DHT22;48626;51.678;5.806;2023-03-14T02:46:05;11.90;99.90
62573;DHT22;48626;51.678;5.806;2023-03-14T02:51:03;11.80;99.90
62573;DHT22;48626;51.678;5.806;2023-03-14T02:53:33;11.90;99.90
62573;DHT22;48626;51.678;5.806;2023-03-14T02:56:00;11.80;99.90
62573;DHT22;48626;51.678;5.806;2023-03-14T02:58:26;11.80;99.90
62573;DHT22;48626;51.678;5.806;2023-03-14T03:00:52;11.80;99.90
62573;DHT22;48626;51.678;5.806;2023-03-14T03:03:18;11.80;99.90
62573;DHT22;48626;51.678;5.806;2023-03-14T03:05:48;11.80;99.90
62573;DHT22;48626;51.678;5.806;2023-03-14T03:08:14;11.80;99.90
62573;DHT22;48626;51.678;5.806;2023-03-14T03:10:39;11.80;99.90
62573;DHT22;48626;51.678;5.806;2023-03-14T03:13:05;11.80;99.90
62573;DHT22;48626;51.678;5.806;2023-03-14T03:15:31;11.80;99.90
62573;DHT22;48626;51.678;5.806;2023-03-14T03:17:56;11.90;99.90
62573;DHT22;48626;51.678;5.806;2023-03-14T03:20:22;11.80;99.90
62573;DHT22;48626;51.678;5.806;2023-03-14T03:22:48;11.80;99.90
62573;DHT22;48626;51.678;5.806;2023-03-14T03:25:15;11.80;99.90
62573;DHT22;48626;51.678;5.806;2023-03-14T03:27:41;11.80;99.90
62573;DHT22;48626;51.678;5.806;2023-03-14T03:30:07;11.80;99.90
62573;DHT22;48626;51.678;5.806;2023-03-14T03:32:33;11.80;99.90
62573;DHT22;48626;51.678;5.806;2023-03-14T03:34:59;11.70;99.90
62573;DHT22;48626;51.678;5.806;2023-03-14T03:37:25;11.80;99.90
62573;DHT22;48626;51.678;5.806;2023-03-14T03:39:51;11.80;99.90
62573;DHT22;48626;51.678;5.806;2023-03-14T03:42:17;11.80;99.90
62573;DHT22;48626;51.678;5.806;2023-03-14T03:44:43;11.80;99.90
62573;DHT22;48626;51.678;5.806;2023-03-14T03:47:09;11.80;99.90
62573;DHT22;48626;51.678;5.806;2023-03-14T03:49:35;11.80;99.90
62573;DHT22;48626;51.678;5.806;2023-03-14T03:52:00;11.80;99.90
62573;DHT22;48626;51.678;5.806;2023-03-14T03:54:26;11.80;99.90
62573;DHT22;48626;51.678;5.806;2023-03-14T03:56:52;11.70;99.90
62573;DHT22;48626;51.678;5.806;2023-03-14T03:59:18;11.70;99.90
62573;DHT22;48626;51.678;5.806;2023-03-14T04:01:44;11.70;99.90
62573;DHT22;48626;51.678;5.806;2023-03-14T04:04:09;11.60;99.90
62573;DHT22;48626;51.678;5.806;2023-03-14T04:06:36;11.60;99.90
62573;DHT22;48626;51.678;5.806;2023-03-14T04:09:02;11.60;99.90
62573;DHT22;48626;51.678;5.806;2023-03-14T04:11:28;11.60;99.90
62573;DHT22;48626;51.678;5.806;2023-03-14T04:13:54;11.60;99.90
62573;DHT22;48626;51.678;5.806;2023-03-14T04:16:22;11.60;99.90
62573;DHT22;48626;51.678;5.806;2023-03-14T04:18:48;11.60;99.90
62573;DHT22;48626;51.678;5.806;2023-03-14T04:21:14;11.50;99.90
62573;DHT22;48626;51.678;5.806;2023-03-14T04:23:40;11.50;99.90
62573;DHT22;48626;51.678;5.806;2023-03-14T04:26:06;11.50;99.90
62573;DHT22;48626;51.678;5.806;2023-03-14T04:28:32;11.40;99.90
62573;DHT22;48626;51.678;5.806;2023-03-14T04:30:58;11.30;99.90
62573;DHT22;48626;51.678;5.806;2023-03-14T04:33:23;11.30;99.90
62573;DHT22;48626;51.678;5.806;2023-03-14T04:35:53;11.20;99.90
62573;DHT22;48626;51.678;5.806;2023-03-14T04:38:19;11.20;99.90
62573;DHT22;48626;51.678;5.806;2023-03-14T04:40:44;11.20;99.90
62573;DHT22;48626;51.678;5.806;2023-03-14T04:43:11;11.20;99.90
62573;DHT22;48626;51.678;5.806;2023-03-14T04:45:37;11.20;99.90
62573;DHT22;48626;51.678;5.806;2023-03-14T04:48:03;11.10;99.90
62573;DHT22;48626;51.678;5.806;2023-03-14T04:50:28;11.10;99.90
62573;DHT22;48626;51.678;5.806;2023-03-14T04:52:54;11.10;99.90
62573;DHT22;48626;51.678;5.806;2023-03-14T04:55:20;11.00;99.90
62573;DHT22;48626;51.678;5.806;2023-03-14T04:57:45;11.00;99.90
62573;DHT22;48626;51.678;5.806;2023-03-14T05:00:12;11.00;99.90
62573;DHT22;48626;51.678;5.806;2023-03-14T05:02:37;11.00;99.90
62573;DHT22;48626;51.678;5.806;2023-03-14T05:05:03;10.90;99.90
62573;DHT22;48626;51.678;5.806;2023-03-14T05:07:29;10.90;99.90
62573;DHT22;48626;51.678;5.806;2023-03-14T05:09:55;10.90;99.90
62573;DHT22;48626;51.678;5.806;2023-03-14T05:12:21;11.00;99.90
62573;DHT22;48626;51.678;5.806;2023-03-14T05:14:46;11.00;99.90
62573;DHT22;48626;51.678;5.806;2023-03-14T05:17:12;11.00;99.90
62573;DHT22;48626;51.678;5.806;2023-03-14T05:19:40;11.00;99.90
62573;DHT22;48626;51.678;5.806;2023-03-14T05:22:06;11.00;99.90
62573;DHT22;48626;51.678;5.806;2023-03-14T05:24:32;11.00;99.90
62573;DHT22;48626;51.678;5.806;2023-03-14T05:26:58;11.00;99.90
62573;DHT22;48626;51.678;5.806;2023-03-14T05:29:23;10.90;99.90
62573;DHT22;48626;51.678;5.806;2023-03-14T05:31:49;10.80;99.90
62573;DHT22;48626;51.678;5.806;2023-03-14T05:34:15;10.80;99.90
62573;DHT22;48626;51.678;5.806;2023-03-14T05:36:40;10.70;99.90
62573;DHT22;48626;51.678;5.806;2023-03-14T05:39:06;10.70;99.90
62573;DHT22;48626;51.678;5.806;2023-03-14T05:41:32;10.60;99.90
62573;DHT22;48626;51.678;5.806;2023-03-14T05:43:57;10.50;99.90
62573;DHT22;48626;51.678;5.806;2023-03-14T05:46:23;10.60;99.90
62573;DHT22;48626;51.678;5.806;2023-03-14T05:48:49;10.50;99.90
62573;DHT22;48626;51.678;5.806;2023-03-14T05:51:14;10.50;99.90
62573;DHT22;48626;51.678;5.806;2023-03-14T05:53:40;10.50;99.90
62573;DHT22;48626;51.678;5.806;2023-03-14T05:56:06;10.50;99.90
62573;DHT22;48626;51.678;5.806;2023-03-14T05:58:32;10.50;99.90
62573;DHT22;48626;51.678;5.806;2023-03-14T06:01:02;10.50;99.90
62573;DHT22;48626;51.678;5.806;2023-03-14T06:03:27;10.60;99.90
62573;DHT22;48626;51.678;5.806;2023-03-14T06:05:53;10.60;99.90
62573;DHT22;48626;51.678;5.806;2023-03-14T06:08:19;10.60;99.90
62573;DHT22;48626;51.678;5.806;2023-03-14T06:10:44;10.60;99.90
62573;DHT22;48626;51.678;5.806;2023-03-14T06:13:10;10.60;99.90
62573;DHT22;48626;51.678;5.806;2023-03-14T06:15:36;10.70;99.90
62573;DHT22;48626;51.678;5.806;2023-03-14T06:18:02;10.70;99.90
62573;DHT22;48626;51.678;5.806;2023-03-14T06:20:28;10.70;99.90
62573;DHT22;48626;51.678;5.806;2023-03-14T06:22:53;10.70;99.90
62573;DHT22;48626;51.678;5.806;2023-03-14T06:25:19;10.70;99.90
62573;DHT22;48626;51.678;5.806;2023-03-14T06:27:45;10.70;99.90
62573;DHT22;48626;51.678;5.806;2023-03-14T06:30:11;10.70;99.90
62573;DHT22;48626;51.678;5.806;2023-03-14T06:32:37;10.80;99.90
62573;DHT22;48626;51.678;5.806;2023-03-14T06:35:02;10.80;99.90
62573;DHT22;48626;51.678;5.806;2023-03-14T06:37:28;10.80;99.90
62573;DHT22;48626;51.678;5.806;2023-03-14T06:39:55;10.90;99.90
62573;DHT22;48626;51.678;5.806;2023-03-14T06:42:21;10.90;99.90
62573;DHT22;48626;51.678;5.806;2023-03-14T06:44:46;11.00;99.90
62573;DHT22;48626;51.678;5.806;2023-03-14T06:47:12;11.00;99.90
62573;DHT22;48626;51.678;5.806;2023-03-14T06:49:38;11.00;99.90
62573;DHT22;48626;51.678;5.806;2023-03-14T06:52:04;11.00;99.90
62573;DHT22;48626;51.678;5.806;2023-03-14T06:54:29;11.10;99.90
62573;DHT22;48626;51.678;5.806;2023-03-14T06:56:55;11.20;99.90
62573;DHT22;48626;51.678;5.806;2023-03-14T06:59:21;11.20;99.90
62573;DHT22;48626;51.678;5.806;2023-03-14T07:01:46;11.20;99.90
62573;DHT22;48626;51.678;5.806;2023-03-14T07:04:13;11.20;99.90
62573;DHT22;48626;51.678;5.806;2023-03-14T07:06:39;11.20;99.90
62573;DHT22;48626;51.678;5.806;2023-03-14T07:09:10;11.20;99.90
62573;DHT22;48626;51.678;5.806;2023-03-14T07:11:35;11.30;99.90
62573;DHT22;48626;51.678;5.806;2023-03-14T07:14:01;11.30;99.90
62573;DHT22;48626;51.678;5.806;2023-03-14T07:16:27;11.40;99.90
62573;DHT22;48626;51.678;5.806;2023-03-14T07:18:56;11.40;99.90
62573;DHT22;48626;51.678;5.806;2023-03-14T07:21:22;11.40;99.90
62573;DHT22;48626;51.678;5.806;2023-03-14T07:23:48;11.30;99.90
62573;DHT22;48626;51.678;5.806;2023-03-14T07:26:14;11.30;99.90
62573;DHT22;48626;51.678;5.806;2023-03-14T07:28:40;11.30;99.90
62573;DHT22;48626;51.678;5.806;2023-03-14T07:31:05;11.20;99.90
62573;DHT22;48626;51.678;5.806;2023-03-14T07:33:31;11.20;99.90
62573;DHT22;48626;51.678;5.806;2023-03-14T07:35:57;11.10;99.90
62573;DHT22;48626;51.678;5.806;2023-03-14T07:38:23;11.10;99.90
62573;DHT22;48626;51.678;5.806;2023-03-14T07:40:50;11.00;99.90
62573;DHT22;48626;51.678;5.806;2023-03-14T07:43:16;11.00;99.90
62573;DHT22;48626;51.678;5.806;2023-03-14T07:45:45;11.00;99.90
62573;DHT22;48626;51.678;5.806;2023-03-14T07:48:11;11.00;99.90
62573;DHT22;48626;51.678;5.806;2023-03-14T07:50:37;10.70;99.90
62573;DHT22;48626;51.678;5.806;2023-03-14T07:53:02;10.40;99.90
62573;DHT22;48626;51.678;5.806;2023-03-14T07:55:28;10.20;99.90
62573;DHT22;48626;51.678;5.806;2023-03-14T07:57:53;10.00;99.90
62573;DHT22;48626;51.678;5.806;2023-03-14T08:00:19;9.90;99.90
62573;DHT22;48626;51.678;5.806;2023-03-14T08:02:45;9.80;99.90
62573;DHT22;48626;51.678;5.806;2023-03-14T08:05:11;9.70;99.90
62573;DHT22;48626;51.678;5.806;2023-03-14T08:07:36;9.60;99.90
62573;DHT22;48626;51.678;5.806;2023-03-14T08:10:03;9.50;99.90
62573;DHT22;48626;51.678;5.806;2023-03-14T08:12:28;9.40;99.90
62573;DHT22;48626;51.678;5.806;2023-03-14T08:14:54;9.40;99.90
62573;DHT22;48626;51.678;5.806;2023-03-14T08:17:20;9.30;99.90
62573;DHT22;48626;51.678;5.806;2023-03-14T08:19:45;9.30;99.90
62573;DHT22;48626;51.678;5.806;2023-03-14T08:22:11;9.30;99.90
62573;DHT22;48626;51.678;5.806;2023-03-14T08:24:36;9.30;99.90
62573;DHT22;48626;51.678;5.806;2023-03-14T08:27:02;9.30;99.90
62573;DHT22;48626;51.678;5.806;2023-03-14T08:29:28;9.30;99.90
62573;DHT22;48626;51.678;5.806;2023-03-14T08:31:53;9.30;99.90
62573;DHT22;48626;51.678;5.806;2023-03-14T08:34:20;9.30;99.90
62573;DHT22;48626;51.678;5.806;2023-03-14T08:36:46;9.30;99.90
62573;DHT22;48626;51.678;5.806;2023-03-14T08:39:11;9.30;99.90
62573;DHT22;48626;51.678;5.806;2023-03-14T08:41:37;9.40;99.90
62573;DHT22;48626;51.678;5.806;2023-03-14T08:44:06;9.40;99.90
62573;DHT22;48626;51.678;5.806;2023-03-14T08:46:32;9.40;99.90
62573;DHT22;48626;51.678;5.806;2023-03-14T08:48:58;9.50;99.90
62573;DHT22;48626;51.678;5.806;2023-03-14T08:51:24;9.50;99.90
62573;DHT22;48626;51.678;5.806;2023-03-14T08:53:50;9.60;99.90
62573;DHT22;48626;51.678;5.806;2023-03-14T08:56:15;9.60;99.90
62573;DHT22;48626;51.678;5.806;2023-03-14T08:58:42;9.70;99.90
62573;DHT22;48626;51.678;5.806;2023-03-14T09:01:09;9.70;99.90
62573;DHT22;48626;51.678;5.806;2023-03-14T09:03:36;9.70;99.90
62573;DHT22;48626;51.678;5.806;2023-03-14T09:06:07;9.60;99.90
62573;DHT22;48626;51.678;5.806;2023-03-14T09:08:34;9.60;99.90
62573;DHT22;48626;51.678;5.806;2023-03-14T09:11:00;9.50;99.90
62573;DHT22;48626;51.678;5.806;2023-03-14T09:13:26;9.50;99.90
62573;DHT22;48626;51.678;5.806;2023-03-14T09:15:53;9.50;99.90
62573;DHT22;48626;51.678;5.806;2023-03-14T09:18:19;9.50;99.90
62573;DHT22;48626;51.678;5.806;2023-03-14T09:20:44;9.50;99.90
62573;DHT22;48626;51.678;5.806;2023-03-14T09:23:10;9.30;99.90
62573;DHT22;48626;51.678;5.806;2023-03-14T09:25:36;9.00;99.90
62573;DHT22;48626;51.678;5.806;2023-03-14T09:28:02;8.80;99.90
62573;DHT22;48626;51.678;5.806;2023-03-14T09:30:28;8.60;99.90
62573;DHT22;48626;51.678;5.806;2023-03-14T09:32:53;8.60;99.90
62573;DHT22;48626;51.678;5.806;2023-03-14T09:35:19;8.50;99.90
62573;DHT22;48626;51.678;5.806;2023-03-14T09:37:45;8.60;99.90
62573;DHT22;48626;51.678;5.806;2023-03-14T09:40:16;8.60;99.90
62573;DHT22;48626;51.678;5.806;2023-03-14T09:42:42;8.60;99.90
62573;DHT22;48626;51.678;5.806;2023-03-14T09:45:17;8.60;99.90
62573;DHT22;48626;51.678;5.806;2023-03-14T09:47:45;8.80;99.90
62573;DHT22;48626;51.678;5.806;2023-03-14T09:50:15;8.80;99.90
62573;DHT22;48626;51.678;5.806;2023-03-14T09:52:44;8.80;99.90
62573;DHT22;48626;51.678;5.806;2023-03-14T09:55:12;9.10;99.90
62573;DHT22;48626;51.678;5.806;2023-03-14T09:57:39;9.10;99.90
62573;DHT22;48626;51.678;5.806;2023-03-14T10:00:16;9.30;99.90
62573;DHT22;48626;51.678;5.806;2023-03-14T10:02:45;9.60;99.90
62573;DHT22;48626;51.678;5.806;2023-03-14T10:05:20;9.60;99.90
62573;DHT22;48626;51.678;5.806;2023-03-14T10:07:46;9.50;99.90
62573;DHT22;48626;51.678;5.806;2023-03-14T10:10:23;9.60;99.90
62573;DHT22;48626;51.678;5.806;2023-03-14T10:12:58;9.50;99.90
62573;DHT22;48626;51.678;5.806;2023-03-14T10:15:32;9.50;99.90
62573;DHT22;48626;51.678;5.806;2023-03-14T10:18:00;9.40;99.90
62573;DHT22;48626;51.678;5.806;2023-03-14T10:20:40;9.40;99.90
62573;DHT22;48626;51.678;5.806;2023-03-14T10:25:41;9.20;99.90
62573;DHT22;48626;51.678;5.806;2023-03-14T10:29:01;9.10;99.90
62573;DHT22;48626;51.678;5.806;2023-03-14T10:31:25;9.20;99.90
62573;DHT22;48626;51.678;5.806;2023-03-14T10:34:00;9.20;99.90
62573;DHT22;48626;51.678;5.806;2023-03-14T10:36:28;9.30;99.90
62573;DHT22;48626;51.678;5.806;2023-03-14T10:41:50;9.40;99.90
62573;DHT22;48626;51.678;5.806;2023-03-14T10:44:21;9.50;99.90
62573;DHT22;48626;51.678;5.806;2023-03-14T10:47:00;9.60;99.90
62573;DHT22;48626;51.678;5.806;2023-03-14T10:49:35;9.60;99.90
62573;DHT22;48626;51.678;5.806;2023-03-14T10:52:10;9.60;99.90
62573;DHT22;48626;51.678;5.806;2023-03-14T10:54:39;9.70;99.90
62573;DHT22;48626;51.678;5.806;2023-03-14T10:57:05;10.00;99.90
62573;DHT22;48626;51.678;5.806;2023-03-14T10:59:39;10.30;99.90
62573;DHT22;48626;51.678;5.806;2023-03-14T11:07:44;10.60;99.90
62573;DHT22;48626;51.678;5.806;2023-03-14T11:15:58;10.60;99.90
62573;DHT22;48626;51.678;5.806;2023-03-14T11:28:58;10.10;99.90
62573;DHT22;48626;51.678;5.806;2023-03-14T11:31:29;9.30;99.90
62573;DHT22;48626;51.678;5.806;2023-03-14T11:34:27;8.70;99.90
62573;DHT22;48626;51.678;5.806;2023-03-14T11:39:40;8.40;99.90
62573;DHT22;48626;51.678;5.806;2023-03-14T11:42:12;8.40;99.90
62573;DHT22;48626;51.678;5.806;2023-03-14T11:44:39;8.40;99.90
62573;DHT22;48626;51.678;5.806;2023-03-14T11:47:29;8.50;99.90
62573;DHT22;48626;51.678;5.806;2023-03-14T11:50:18;8.70;99.90
62573;DHT22;48626;51.678;5.806;2023-03-14T11:52:55;9.20;99.90
62573;DHT22;48626;51.678;5.806;2023-03-14T11:57:48;9.60;99.90
62573;DHT22;48626;51.678;5.806;2023-03-14T12:00:21;9.70;99.90
62573;DHT22;48626;51.678;5.806;2023-03-14T12:10:55;9.30;99.90
62573;DHT22;48626;51.678;5.806;2023-03-14T12:13:23;9.10;99.90
62573;DHT22;48626;51.678;5.806;2023-03-14T12:15:58;9.10;99.90
62573;DHT22;48626;51.678;5.806;2023-03-14T12:18:29;9.30;99.90
62573;DHT22;48626;51.678;5.806;2023-03-14T12:21:03;9.50;99.90
62573;DHT22;48626;51.678;5.806;2023-03-14T12:23:44;9.90;99.90
62573;DHT22;48626;51.678;5.806;2023-03-14T12:28:38;10.10;99.90
62573;DHT22;48626;51.678;5.806;2023-03-14T12:31:42;10.50;99.90
62573;DHT22;48626;51.678;5.806;2023-03-14T12:47:54;13.80;99.90
62573;DHT22;48626;51.678;5.806;2023-03-14T12:50:33;14.80;99.90
62573;DHT22;48626;51.678;5.806;2023-03-14T12:53:33;15.60;99.90
62573;DHT22;48626;51.678;5.806;2023-03-14T12:56:09;16.50;99.90
62573;DHT22;48626;51.678;5.806;2023-03-14T13:01:25;16.80;99.90
62573;DHT22;48626;51.678;5.806;2023-03-14T13:03:56;16.80;99.90
62573;DHT22;48626;51.678;5.806;2023-03-14T13:12:14;17.20;99.90
62573;DHT22;48626;51.678;5.806;2023-03-14T13:14:48;16.70;99.90
62573;DHT22;48626;51.678;5.806;2023-03-14T13:17:26;16.10;99.90
62573;DHT22;48626;51.678;5.806;2023-03-14T13:20:02;15.80;99.90
62573;DHT22;48626;51.678;5.806;2023-03-14T13:22:32;16.30;99.90
62573;DHT22;48626;51.678;5.806;2023-03-14T13:25:00;16.70;99.90
62573;DHT22;48626;51.678;5.806;2023-03-14T13:27:30;16.30;99.90
62573;DHT22;48626;51.678;5.806;2023-03-14T13:29:57;16.00;99.90
62573;DHT22;48626;51.678;5.806;2023-03-14T13:32:28;16.40;99.90
62573;DHT22;48626;51.678;5.806;2023-03-14T13:34:59;16.90;99.90
62573;DHT22;48626;51.678;5.806;2023-03-14T13:37:26;17.00;99.90
62573;DHT22;48626;51.678;5.806;2023-03-14T13:39:54;16.70;99.90
62573;DHT22;48626;51.678;5.806;2023-03-14T13:42:24;17.00;99.90
62573;DHT22;48626;51.678;5.806;2023-03-14T13:44:52;16.80;99.90
62573;DHT22;48626;51.678;5.806;2023-03-14T13:47:21;16.60;99.90
62573;DHT22;48626;51.678;5.806;2023-03-14T13:49:48;16.50;99.90
62573;DHT22;48626;51.678;5.806;2023-03-14T13:52:37;15.80;99.90
62573;DHT22;48626;51.678;5.806;2023-03-14T13:55:05;15.30;99.90
62573;DHT22;48626;51.678;5.806;2023-03-14T13:57:51;14.70;99.90
62573;DHT22;48626;51.678;5.806;2023-03-14T14:02:48;14.00;99.90
62573;DHT22;48626;51.678;5.806;2023-03-14T14:05:13;13.90;99.90
62573;DHT22;48626;51.678;5.806;2023-03-14T14:07:42;13.90;99.90
62573;DHT22;48626;51.678;5.806;2023-03-14T14:10:11;14.20;99.90
62573;DHT22;48626;51.678;5.806;2023-03-14T14:13:01;13.90;99.90
62573;DHT22;48626;51.678;5.806;2023-03-14T14:15:32;13.70;99.90
62573;DHT22;48626;51.678;5.806;2023-03-14T14:18:02;13.30;99.90
62573;DHT22;48626;51.678;5.806;2023-03-14T14:20:33;12.90;99.90
62573;DHT22;48626;51.678;5.806;2023-03-14T14:23:04;12.80;99.90
62573;DHT22;48626;51.678;5.806;2023-03-14T14:25:31;12.60;99.90
62573;DHT22;48626;51.678;5.806;2023-03-14T14:27:57;12.40;99.90
62573;DHT22;48626;51.678;5.806;2023-03-14T14:30:33;12.10;99.90
62573;DHT22;48626;51.678;5.806;2023-03-14T14:33:19;11.80;99.90
62573;DHT22;48626;51.678;5.806;2023-03-14T14:35:56;11.70;99.90
62573;DHT22;48626;51.678;5.806;2023-03-14T14:38:22;11.50;99.90
62573;DHT22;48626;51.678;5.806;2023-03-14T14:40:51;11.40;99.90
62573;DHT22;48626;51.678;5.806;2023-03-14T14:43:24;11.30;99.90
62573;DHT22;48626;51.678;5.806;2023-03-14T14:45:53;11.10;99.90
62573;DHT22;48626;51.678;5.806;2023-03-14T14:48:24;11.10;99.90
62573;DHT22;48626;51.678;5.806;2023-03-14T14:50:55;11.10;99.90
62573;DHT22;48626;51.678;5.806;2023-03-14T14:53:39;11.00;99.90
62573;DHT22;48626;51.678;5.806;2023-03-14T14:56:18;11.10;99.90
62573;DHT22;48626;51.678;5.806;2023-03-14T14:58:48;11.20;99.90
62573;DHT22;48626;51.678;5.806;2023-03-14T15:01:24;11.20;99.90
62573;DHT22;48626;51.678;5.806;2023-03-14T15:03:55;11.00;99.90
62573;DHT22;48626;51.678;5.806;2023-03-14T15:06:21;11.00;99.90
62573;DHT22;48626;51.678;5.806;2023-03-14T15:08:49;11.00;99.90
62573;DHT22;48626;51.678;5.806;2023-03-14T15:11:22;10.90;99.90
62573;DHT22;48626;51.678;5.806;2023-03-14T15:13:52;10.80;99.90
62573;DHT22;48626;51.678;5.806;2023-03-14T15:16:23;10.80;99.90
62573;DHT22;48626;51.678;5.806;2023-03-14T15:18:57;10.80;99.90
62573;DHT22;48626;51.678;5.806;2023-03-14T15:21:24;10.70;99.90
62573;DHT22;48626;51.678;5.806;2023-03-14T15:23:50;10.50;99.90
62573;DHT22;48626;51.678;5.806;2023-03-14T15:26:22;10.50;99.90
62573;DHT22;48626;51.678;5.806;2023-03-14T15:28:48;10.50;99.90
62573;DHT22;48626;51.678;5.806;2023-03-14T15:31:15;10.50;99.90
62573;DHT22;48626;51.678;5.806;2023-03-14T15:33:43;10.40;99.90
62573;DHT22;48626;51.678;5.806;2023-03-14T15:36:29;10.40;99.90
62573;DHT22;48626;51.678;5.806;2023-03-14T15:38:56;10.40;99.90
62573;DHT22;48626;51.678;5.806;2023-03-14T15:41:24;10.30;99.90
62573;DHT22;48626;51.678;5.806;2023-03-14T15:43:50;10.20;99.90
62573;DHT22;48626;51.678;5.806;2023-03-14T15:46:17;10.10;99.90
62573;DHT22;48626;51.678;5.806;2023-03-14T15:48:46;10.00;99.90
62573;DHT22;48626;51.678;5.806;2023-03-14T15:51:12;9.90;99.90
62573;DHT22;48626;51.678;5.806;2023-03-14T15:53:38;9.70;99.90
62573;DHT22;48626;51.678;5.806;2023-03-14T15:56:06;9.60;99.90
62573;DHT22;48626;51.678;5.806;2023-03-14T15:58:32;9.50;99.90
62573;DHT22;48626;51.678;5.806;2023-03-14T16:01:02;9.50;99.90
62573;DHT22;48626;51.678;5.806;2023-03-14T16:03:28;9.40;99.90
62573;DHT22;48626;51.678;5.806;2023-03-14T16:05:54;9.30;99.90
62573;DHT22;48626;51.678;5.806;2023-03-14T16:08:21;9.20;99.90
62573;DHT22;48626;51.678;5.806;2023-03-14T16:10:47;9.20;99.90
62573;DHT22;48626;51.678;5.806;2023-03-14T16:13:13;9.10;99.90
62573;DHT22;48626;51.678;5.806;2023-03-14T16:15:39;9.00;99.90
62573;DHT22;48626;51.678;5.806;2023-03-14T16:18:05;9.00;99.90
62573;DHT22;48626;51.678;5.806;2023-03-14T16:20:30;9.00;99.90
62573;DHT22;48626;51.678;5.806;2023-03-14T16:22:56;8.90;99.90
62573;DHT22;48626;51.678;5.806;2023-03-14T16:25:22;8.90;99.90
62573;DHT22;48626;51.678;5.806;2023-03-14T16:27:47;8.80;99.90
62573;DHT22;48626;51.678;5.806;2023-03-14T16:30:14;8.80;99.90
62573;DHT22;48626;51.678;5.806;2023-03-14T16:32:40;8.80;99.90
62573;DHT22;48626;51.678;5.806;2023-03-14T16:35:06;8.70;99.90
62573;DHT22;48626;51.678;5.806;2023-03-14T16:37:31;8.70;99.90
62573;DHT22;48626;51.678;5.806;2023-03-14T16:39:57;8.70;99.90
62573;DHT22;48626;51.678;5.806;2023-03-14T16:42:23;8.60;99.90
62573;DHT22;48626;51.678;5.806;2023-03-14T16:44:48;8.50;99.90
62573;DHT22;48626;51.678;5.806;2023-03-14T16:47:14;8.50;99.90
62573;DHT22;48626;51.678;5.806;2023-03-14T16:49:40;8.40;99.90
62573;DHT22;48626;51.678;5.806;2023-03-14T16:52:06;8.40;99.90
62573;DHT22;48626;51.678;5.806;2023-03-14T16:54:33;8.30;99.90
62573;DHT22;48626;51.678;5.806;2023-03-14T16:56:59;8.30;99.90
62573;DHT22;48626;51.678;5.806;2023-03-14T16:59:24;8.20;99.90